Time;durP1;ratioP1;P1;durP2;ratioP2;P2;SDS_P1;SDS_P2;PMS_P1;PMS_P2;Temp;Humidity;BMP_temperature;BMP_pressure;BME280_temperature;BME280_humidity;BME280_pressure;Samples;Min_cycle;Max_cycle;Signal;HPM_P1;HPM_P2
2022/01/29 00:02:09;;;;;;;35.63;18.70;;;6.80;99.90;;;;;;4733523;30;20728;-86
2022/01/29 00:04:35;;;;;;;33.90;19.05;;;6.80;99.90;;;;;;4717587;30;20059;-85
2022/01/29 00:07:01;;;;;;;42.05;19.45;;;6.80;99.90;;;;;;4731505;30;20194;-86
2022/01/29 00:09:26;;;;;;;34.15;17.67;;;6.80;99.90;;;;;;4730014;30;20131;-85
2022/01/29 00:11:52;;;;;;;32.40;19.27;;;6.80;99.90;;;;;;4745654;30;20051;-85
2022/01/29 00:14:18;;;;;;;36.92;18.83;;;6.80;99.90;;;;;;4733179;30;20044;-86
2022/01/29 00:16:44;;;;;;;33.70;17.95;;;6.90;99.90;;;;;;4718134;30;20055;-85
2022/01/29 00:19:10;;;;;;;41.60;20.25;;;6.90;99.90;;;;;;4731942;30;20131;-85
2022/01/29 00:21:35;;;;;;;37.20;19.25;;;6.90;99.90;;;;;;4717201;30;20111;-85
2022/01/29 00:24:01;;;;;;;30.13;16.15;;;6.90;99.90;;;;;;4731968;30;20056;-85
2022/01/29 00:26:28;;;;;;;30.25;16.33;;;6.90;99.90;;;;;;4716029;30;20048;-85
2022/01/29 00:28:56;;;;;;;38.78;17.67;;;6.90;99.90;;;;;;4730721;30;20056;-85
2022/01/29 00:31:22;;;;;;;33.53;18.52;;;6.90;99.90;;;;;;4717549;30;20036;-85
2022/01/29 00:33:47;;;;;;;36.38;17.95;;;6.90;99.90;;;;;;4734075;30;20058;-85
2022/01/29 00:36:13;;;;;;;31.27;16.48;;;6.90;99.90;;;;;;4712871;30;20134;-85
2022/01/29 00:38:39;;;;;;;39.88;18.52;;;6.90;99.90;;;;;;4716249;30;20055;-85
2022/01/29 00:41:05;;;;;;;33.15;17.15;;;6.80;99.90;;;;;;4717976;30;20055;-86
2022/01/29 00:43:31;;;;;;;40.35;19.98;;;6.80;99.90;;;;;;4733992;30;20507;-85
2022/01/29 00:45:56;;;;;;;41.25;17.67;;;6.80;99.90;;;;;;4734377;30;20048;-85
2022/01/29 00:48:22;;;;;;;41.45;19.10;;;6.80;99.90;;;;;;4734584;30;20064;-85
2022/01/29 00:50:48;;;;;;;48.05;19.33;;;6.70;99.90;;;;;;4735263;30;20071;-85
2022/01/29 00:53:13;;;;;;;39.13;19.35;;;6.70;99.90;;;;;;4722995;30;20033;-85
2022/01/29 00:55:41;;;;;;;39.50;19.60;;;6.70;99.90;;;;;;4735938;30;20044;-85
2022/01/29 00:58:07;;;;;;;41.42;20.40;;;6.70;99.90;;;;;;4735689;30;20082;-85
2022/01/29 01:00:33;;;;;;;44.30;20.27;;;6.70;99.90;;;;;;4734061;30;20059;-85
2022/01/29 01:02:59;;;;;;;39.25;17.80;;;6.70;99.90;;;;;;4728764;30;20349;-85
2022/01/29 01:05:24;;;;;;;41.50;20.08;;;6.70;99.90;;;;;;4717376;30;20048;-85
2022/01/29 01:07:50;;;;;;;38.50;18.77;;;6.70;99.90;;;;;;4720525;30;20040;-86
2022/01/29 01:10:16;;;;;;;40.67;19.90;;;6.70;99.90;;;;;;4720972;30;20048;-85
2022/01/29 01:12:41;;;;;;;40.53;18.42;;;6.70;99.90;;;;;;4730327;30;20050;-85
2022/01/29 01:15:08;;;;;;;37.60;17.83;;;6.70;99.90;;;;;;4719882;30;20056;-85
2022/01/29 01:17:34;;;;;;;44.00;20.00;;;6.70;99.90;;;;;;4728955;30;20052;-86
2022/01/29 01:19:59;;;;;;;37.38;18.48;;;6.70;99.90;;;;;;4734396;30;20048;-85
2022/01/29 01:22:25;;;;;;;42.47;19.50;;;6.70;99.90;;;;;;4718417;30;20097;-85
2022/01/29 01:24:51;;;;;;;49.70;20.15;;;6.80;99.90;;;;;;4735630;30;20080;-85
2022/01/29 01:27:16;;;;;;;44.42;20.52;;;6.80;99.90;;;;;;4733310;30;20048;-85
2022/01/29 01:29:42;;;;;;;42.40;21.67;;;6.70;99.90;;;;;;4734810;30;20163;-85
2022/01/29 01:32:11;;;;;;;46.75;20.23;;;6.70;99.90;;;;;;4734400;30;20047;-85
2022/01/29 01:34:41;;;;;;;40.65;19.48;;;6.70;99.90;;;;;;4721216;30;20028;-86
2022/01/29 01:37:10;;;;;;;42.67;19.15;;;6.70;99.90;;;;;;4731951;30;20040;-86
2022/01/29 01:39:38;;;;;;;40.33;20.38;;;6.70;99.90;;;;;;4733168;30;20098;-85
2022/01/29 01:42:06;;;;;;;43.63;19.42;;;6.80;99.90;;;;;;4719271;30;20120;-85
2022/01/29 01:44:45;;;;;;;39.95;21.08;;;6.80;99.90;;;;;;4718771;30;20061;-85
2022/01/29 01:47:12;;;;;;;35.55;16.63;;;6.90;99.90;;;;;;4710024;30;20053;-85
2022/01/29 01:49:39;;;;;;;42.63;19.27;;;6.90;99.90;;;;;;4716002;30;20112;-85
2022/01/29 01:52:09;;;;;;;43.25;20.85;;;6.90;99.90;;;;;;4714501;30;20059;-85
2022/01/29 01:54:35;;;;;;;47.78;21.75;;;6.80;99.90;;;;;;4727176;30;20048;-86
2022/01/29 01:57:02;;;;;;;42.95;20.52;;;6.80;99.90;;;;;;4717120;30;20047;-86
2022/01/29 01:59:28;;;;;;;46.75;21.55;;;6.80;99.90;;;;;;4720215;30;20071;-85
2022/01/29 02:01:54;;;;;;;43.90;20.92;;;6.80;99.90;;;;;;4733640;30;20114;-84
2022/01/29 02:04:20;;;;;;;42.70;21.35;;;6.80;99.90;;;;;;4730521;30;20496;-84
2022/01/29 02:06:49;;;;;;;45.90;19.83;;;6.90;99.90;;;;;;4726893;30;20052;-84
2022/01/29 02:09:17;;;;;;;56.38;20.52;;;6.90;99.90;;;;;;4731085;30;20044;-84
2022/01/29 02:11:54;;;;;;;41.15;19.40;;;6.90;99.90;;;;;;4732328;30;20048;-84
2022/01/29 02:14:24;;;;;;;46.33;19.65;;;6.90;99.90;;;;;;4727807;30;20045;-84
2022/01/29 02:16:50;;;;;;;51.78;20.67;;;6.90;99.90;;;;;;4729585;30;20075;-84
2022/01/29 02:19:16;;;;;;;44.88;19.90;;;6.90;99.90;;;;;;4729854;30;20060;-84
2022/01/29 02:21:41;;;;;;;48.60;20.05;;;6.90;99.90;;;;;;4714600;30;20044;-84
2022/01/29 02:24:07;;;;;;;45.63;20.85;;;6.90;99.90;;;;;;4710964;30;20060;-84
2022/01/29 02:26:33;;;;;;;46.90;20.83;;;6.90;99.90;;;;;;4712799;30;20049;-84
2022/01/29 02:28:59;;;;;;;48.70;19.15;;;6.90;99.90;;;;;;4728327;30;20457;-84
2022/01/29 02:31:24;;;;;;;44.88;19.30;;;7.00;99.90;;;;;;4714716;30;20206;-84
2022/01/29 02:33:50;;;;;;;45.28;20.48;;;7.00;99.90;;;;;;4730314;30;20044;-84
2022/01/29 02:36:16;;;;;;;48.22;22.00;;;7.00;99.90;;;;;;4715189;30;20095;-84
2022/01/29 02:38:41;;;;;;;42.70;18.92;;;7.00;99.90;;;;;;4709848;30;20049;-84
2022/01/29 02:41:07;;;;;;;43.40;18.33;;;7.00;99.90;;;;;;4713649;30;20051;-84
2022/01/29 02:43:47;;;;;;;43.38;19.58;;;7.10;99.90;;;;;;4729860;30;20059;-84
2022/01/29 02:48:45;;;;;;;42.50;20.42;;;7.10;99.90;;;;;;4728577;30;20052;-85
2022/01/29 02:51:11;;;;;;;42.83;18.15;;;7.10;99.90;;;;;;4726521;30;20055;-84
2022/01/29 02:53:37;;;;;;;37.38;17.58;;;7.10;99.90;;;;;;4729127;30;20041;-84
2022/01/29 02:56:03;;;;;;;41.13;17.77;;;7.10;99.90;;;;;;4731901;30;20104;-84
2022/01/29 02:58:28;;;;;;;43.00;18.70;;;7.10;99.90;;;;;;4715448;30;20044;-84
2022/01/29 03:00:54;;;;;;;45.20;18.02;;;7.20;99.90;;;;;;4710182;30;20121;-84
2022/01/29 03:03:20;;;;;;;36.47;15.30;;;7.20;99.90;;;;;;4730583;30;20049;-84
2022/01/29 03:05:46;;;;;;;44.40;17.83;;;7.20;99.90;;;;;;4713194;30;20369;-84
2022/01/29 03:08:11;;;;;;;35.45;15.70;;;7.30;99.90;;;;;;4723606;30;20471;-84
2022/01/29 03:10:37;;;;;;;35.92;16.60;;;7.30;99.90;;;;;;4729647;30;20049;-84
2022/01/29 03:13:03;;;;;;;40.50;15.18;;;7.30;99.90;;;;;;4716282;30;20051;-84
2022/01/29 03:15:29;;;;;;;34.63;14.82;;;7.40;99.90;;;;;;4726767;30;20049;-84
2022/01/29 03:17:54;;;;;;;31.70;14.40;;;7.40;99.90;;;;;;4730843;30;20091;-84
2022/01/29 03:20:20;;;;;;;33.30;14.70;;;7.40;99.90;;;;;;4730459;30;20075;-84
2022/01/29 03:22:45;;;;;;;29.23;14.45;;;7.50;99.90;;;;;;4709706;30;20066;-84
2022/01/29 03:25:12;;;;;;;36.70;15.13;;;7.50;99.90;;;;;;4730738;30;20122;-84
2022/01/29 03:27:38;;;;;;;32.53;15.18;;;7.50;99.90;;;;;;4712610;30;20064;-84
2022/01/29 03:30:05;;;;;;;34.40;13.75;;;7.60;99.90;;;;;;4714588;30;20044;-84
2022/01/29 03:32:31;;;;;;;32.55;13.77;;;7.60;99.90;;;;;;4711859;30;20531;-84
2022/01/29 03:34:57;;;;;;;32.33;14.10;;;7.60;99.90;;;;;;4715418;30;20048;-85
2022/01/29 03:37:23;;;;;;;31.30;14.02;;;7.60;99.90;;;;;;4728499;30;20052;-84
2022/01/29 03:39:49;;;;;;;34.20;15.20;;;7.70;99.90;;;;;;4730364;30;20037;-84
2022/01/29 03:42:15;;;;;;;34.42;14.18;;;7.70;99.90;;;;;;4728517;30;20052;-84
2022/01/29 03:44:41;;;;;;;32.35;13.70;;;7.70;99.90;;;;;;4724903;30;20060;-83
2022/01/29 03:47:07;;;;;;;29.85;13.45;;;7.70;99.90;;;;;;4727236;30;20405;-84
2022/01/29 03:49:33;;;;;;;32.35;13.57;;;7.70;99.90;;;;;;4730085;30;20059;-84
2022/01/29 03:51:58;;;;;;;31.35;13.30;;;7.70;99.90;;;;;;4727240;30;20432;-85
2022/01/29 03:54:24;;;;;;;30.65;14.23;;;7.80;99.90;;;;;;4714133;30;20717;-84
2022/01/29 03:56:50;;;;;;;29.38;13.13;;;7.80;99.90;;;;;;4708602;30;20052;-84
2022/01/29 03:59:15;;;;;;;26.13;12.02;;;7.80;99.90;;;;;;4724205;30;20051;-83
2022/01/29 04:01:41;;;;;;;28.77;12.88;;;7.80;99.90;;;;;;4727688;30;20400;-84
2022/01/29 04:04:06;;;;;;;33.30;13.85;;;7.80;99.90;;;;;;4726403;30;20080;-84
2022/01/29 04:06:32;;;;;;;30.55;12.85;;;7.90;99.90;;;;;;4730791;30;20045;-84
2022/01/29 04:09:02;;;;;;;27.33;12.23;;;7.90;99.90;;;;;;4711666;30;20059;-84
2022/01/29 04:11:29;;;;;;;26.67;13.13;;;7.90;99.90;;;;;;4716645;30;20055;-84
2022/01/29 04:13:55;;;;;;;31.88;13.52;;;7.90;99.90;;;;;;4729727;30;20059;-84
2022/01/29 04:16:20;;;;;;;22.27;11.30;;;7.80;99.90;;;;;;4729520;30;20056;-84
2022/01/29 04:18:46;;;;;;;28.95;12.20;;;7.80;99.90;;;;;;4717961;30;20040;-84
2022/01/29 04:21:11;;;;;;;25.50;11.45;;;7.90;99.90;;;;;;4718468;30;20420;-84
2022/01/29 04:23:37;;;;;;;25.52;11.50;;;7.90;99.90;;;;;;4734081;30;20052;-84
2022/01/29 04:26:04;;;;;;;27.23;13.00;;;7.90;99.90;;;;;;4718931;30;20044;-84
2022/01/29 04:28:35;;;;;;;26.73;11.98;;;7.90;99.90;;;;;;4718307;30;20476;-84
2022/01/29 04:31:07;;;;;;;32.63;12.60;;;7.90;99.90;;;;;;4739911;30;20056;-84
2022/01/29 04:33:32;;;;;;;24.73;10.37;;;7.90;99.90;;;;;;4730325;30;20121;-84
2022/01/29 04:36:00;;;;;;;31.45;12.07;;;7.90;99.90;;;;;;4731521;30;20358;-84
2022/01/29 04:38:28;;;;;;;26.83;12.23;;;7.90;99.90;;;;;;4728910;30;20071;-84
2022/01/29 04:40:54;;;;;;;28.13;12.18;;;7.90;99.90;;;;;;4717913;30;20080;-84
2022/01/29 04:43:20;;;;;;;23.02;12.07;;;7.90;99.90;;;;;;4729368;30;20053;-85
2022/01/29 04:45:47;;;;;;;23.83;10.80;;;7.90;99.90;;;;;;4720504;30;20048;-84
2022/01/29 04:48:12;;;;;;;19.35;10.75;;;8.00;99.90;;;;;;4728490;30;20500;-84
2022/01/29 04:50:39;;;;;;;21.63;11.63;;;8.00;99.90;;;;;;4717502;30;20063;-84
2022/01/29 04:53:04;;;;;;;21.92;10.27;;;8.00;99.90;;;;;;4731536;30;20040;-84
2022/01/29 04:55:31;;;;;;;20.02;10.98;;;8.00;99.90;;;;;;4727751;30;20049;-84
2022/01/29 04:57:57;;;;;;;24.67;10.55;;;8.00;99.90;;;;;;4714175;30;20446;-84
2022/01/29 05:00:22;;;;;;;24.65;10.80;;;8.00;99.90;;;;;;4715404;30;20044;-84
2022/01/29 05:02:49;;;;;;;23.17;11.40;;;8.00;99.90;;;;;;4728760;30;20542;-84
2022/01/29 05:05:16;;;;;;;22.00;10.07;;;8.00;99.90;;;;;;4731743;30;20057;-84
2022/01/29 05:07:41;;;;;;;24.25;11.38;;;8.10;99.90;;;;;;4730250;30;20102;-84
2022/01/29 05:10:08;;;;;;;28.48;11.18;;;8.10;99.90;;;;;;4731800;30;20080;-84
2022/01/29 05:12:56;;;;;;;22.92;9.98;;;8.20;99.90;;;;;;4730526;30;20416;-84
2022/01/29 05:28:50;;;;;;;24.10;9.80;;;8.30;99.90;;;;;;4732286;30;20083;-84
2022/01/29 05:31:15;;;;;;;21.50;10.38;;;8.30;99.90;;;;;;4717402;30;20080;-84
2022/01/29 05:33:41;;;;;;;22.38;10.02;;;8.40;99.90;;;;;;4731502;30;20048;-84
2022/01/29 05:36:07;;;;;;;25.00;10.30;;;8.40;99.90;;;;;;4731166;30;20403;-84
2022/01/29 05:38:33;;;;;;;18.67;9.82;;;8.40;99.90;;;;;;4717939;30;20107;-84
2022/01/29 05:40:59;;;;;;;21.15;9.60;;;8.40;99.90;;;;;;4732218;30;20044;-84
2022/01/29 05:43:25;;;;;;;21.60;9.07;;;8.40;99.90;;;;;;4730783;30;20106;-84
2022/01/29 05:45:50;;;;;;;23.50;9.85;;;8.40;99.90;;;;;;4712578;30;20077;-84
2022/01/29 05:48:16;;;;;;;21.48;9.82;;;8.40;99.90;;;;;;4730002;30;20136;-84
2022/01/29 05:50:42;;;;;;;21.30;10.25;;;8.40;99.90;;;;;;4727800;30;20407;-84
2022/01/29 05:53:07;;;;;;;19.42;9.43;;;8.40;99.90;;;;;;4715956;30;20044;-84
2022/01/29 05:55:33;;;;;;;20.52;9.82;;;8.40;99.90;;;;;;4730714;30;20049;-84
2022/01/29 05:57:59;;;;;;;21.38;9.85;;;8.40;99.90;;;;;;4717199;30;20053;-84
2022/01/29 06:00:24;;;;;;;22.65;9.80;;;8.40;99.90;;;;;;4732396;30;20048;-84
2022/01/29 06:03:05;;;;;;;20.92;8.82;;;8.40;99.90;;;;;;4715095;30;20129;-85
2022/01/29 06:05:31;;;;;;;20.98;9.27;;;8.40;99.90;;;;;;4709927;30;20083;-84
2022/01/29 06:07:57;;;;;;;18.20;8.70;;;8.40;99.90;;;;;;4728958;30;20037;-84
2022/01/29 06:10:23;;;;;;;23.30;8.88;;;8.40;99.90;;;;;;4729490;30;20045;-84
2022/01/29 06:13:06;;;;;;;22.83;9.10;;;8.30;99.90;;;;;;4714106;30;20489;-84
2022/01/29 06:15:34;;;;;;;18.48;8.73;;;8.30;99.90;;;;;;4718734;30;20048;-84
2022/01/29 06:18:00;;;;;;;21.50;8.75;;;8.30;99.90;;;;;;4710270;30;20492;-84
2022/01/29 06:20:26;;;;;;;18.00;7.28;;;8.30;99.90;;;;;;4716807;30;20057;-84
2022/01/29 06:22:52;;;;;;;21.05;8.00;;;8.30;99.90;;;;;;4728854;30;20114;-84
2022/01/29 06:25:18;;;;;;;17.23;7.63;;;8.30;99.90;;;;;;4716789;30;20441;-84
2022/01/29 06:27:44;;;;;;;16.10;8.13;;;8.30;99.90;;;;;;4715465;30;20045;-84
2022/01/29 06:30:10;;;;;;;18.88;8.23;;;8.40;99.90;;;;;;4725924;30;20087;-84
2022/01/29 06:32:36;;;;;;;15.43;7.35;;;8.40;99.90;;;;;;4725895;30;20663;-84
2022/01/29 06:35:02;;;;;;;13.35;6.90;;;8.40;99.90;;;;;;4727109;30;20144;-84
2022/01/29 06:37:28;;;;;;;15.90;6.57;;;8.40;99.90;;;;;;4716129;30;20059;-84
2022/01/29 06:39:53;;;;;;;18.83;7.93;;;8.40;99.90;;;;;;4725071;30;20056;-84
2022/01/29 06:42:19;;;;;;;13.38;6.40;;;8.40;99.90;;;;;;4725666;30;20100;-84
2022/01/29 06:44:44;;;;;;;17.40;6.47;;;8.40;99.90;;;;;;4727386;30;20507;-84
2022/01/29 06:47:10;;;;;;;14.60;6.45;;;8.40;99.90;;;;;;4705495;30;20052;-84
2022/01/29 06:49:36;;;;;;;13.77;6.50;;;8.40;99.90;;;;;;4727566;30;20053;-84
2022/01/29 06:52:01;;;;;;;14.15;6.10;;;8.50;99.90;;;;;;4719524;30;20053;-84
2022/01/29 06:54:27;;;;;;;16.52;6.95;;;8.50;99.90;;;;;;4716129;30;20037;-84
2022/01/29 06:56:53;;;;;;;13.07;5.13;;;8.60;99.90;;;;;;4714530;30;20082;-84
2022/01/29 06:59:18;;;;;;;16.02;6.22;;;8.60;99.90;;;;;;4708410;30;20071;-84
2022/01/29 07:01:44;;;;;;;12.43;5.72;;;8.60;99.90;;;;;;4728465;30;20041;-84
2022/01/29 07:04:09;;;;;;;14.65;6.43;;;8.60;99.90;;;;;;4729583;30;20143;-84
2022/01/29 07:06:36;;;;;;;16.08;6.85;;;8.70;99.90;;;;;;4715007;30;20051;-84
2022/01/29 07:09:03;;;;;;;16.13;7.55;;;8.60;99.90;;;;;;4728957;30;20098;-84
2022/01/29 07:11:28;;;;;;;13.23;6.78;;;8.60;99.90;;;;;;4729234;30;20048;-83
2022/01/29 07:14:03;;;;;;;14.85;6.40;;;8.60;99.90;;;;;;4709975;30;20063;-84
2022/01/29 07:16:31;;;;;;;15.82;6.18;;;8.60;99.90;;;;;;4712921;30;20504;-84
2022/01/29 07:18:57;;;;;;;16.92;6.28;;;8.60;99.90;;;;;;4726773;30;20044;-84
2022/01/29 07:21:23;;;;;;;14.65;6.32;;;8.60;99.90;;;;;;4730584;30;20055;-84
2022/01/29 07:23:51;;;;;;;14.55;6.90;;;8.60;99.90;;;;;;4724467;30;20081;-84
2022/01/29 07:26:17;;;;;;;16.60;6.57;;;8.60;99.90;;;;;;4711319;30;20056;-84
2022/01/29 07:28:42;;;;;;;14.40;6.38;;;8.70;99.90;;;;;;4725949;30;20444;-84
2022/01/29 07:31:08;;;;;;;12.18;6.25;;;8.70;99.90;;;;;;4708685;30;20049;-84
2022/01/29 07:33:34;;;;;;;20.02;6.65;;;8.70;99.90;;;;;;4711591;30;20040;-84
2022/01/29 07:36:00;;;;;;;16.08;6.78;;;8.70;99.90;;;;;;4711926;30;20487;-84
2022/01/29 07:38:26;;;;;;;15.07;6.82;;;8.70;99.90;;;;;;4717026;30;20041;-84
2022/01/29 07:40:52;;;;;;;15.82;6.80;;;8.70;99.90;;;;;;4724540;30;20076;-85
2022/01/29 07:43:18;;;;;;;14.73;6.07;;;8.70;99.90;;;;;;4727474;30;20077;-84
2022/01/29 07:45:44;;;;;;;19.05;7.68;;;8.70;99.90;;;;;;4726801;30;20141;-84
2022/01/29 07:48:09;;;;;;;17.75;5.95;;;8.80;99.90;;;;;;4725759;30;20148;-84
2022/01/29 07:50:35;;;;;;;14.85;5.68;;;8.70;99.90;;;;;;4722985;30;20051;-84
2022/01/29 07:53:01;;;;;;;12.55;6.30;;;8.80;99.90;;;;;;4725586;30;20048;-85
2022/01/29 07:55:29;;;;;;;13.45;6.20;;;8.80;99.90;;;;;;4721625;30;20048;-84
2022/01/29 07:57:58;;;;;;;13.48;5.63;;;8.80;99.90;;;;;;4732354;30;20059;-84
2022/01/29 08:00:24;;;;;;;15.65;5.68;;;8.80;99.90;;;;;;4711724;30;20048;-84
2022/01/29 08:02:49;;;;;;;13.25;5.80;;;8.80;99.90;;;;;;4719852;30;20466;-84
2022/01/29 08:05:15;;;;;;;12.23;6.03;;;8.90;99.90;;;;;;4724609;30;20044;-84
2022/01/29 08:07:41;;;;;;;12.55;4.97;;;8.90;99.90;;;;;;4727354;30;20041;-84
2022/01/29 08:10:07;;;;;;;12.73;6.82;;;8.90;99.90;;;;;;4727494;30;20553;-84
2022/01/29 08:12:33;;;;;;;13.75;5.45;;;8.90;99.90;;;;;;4726001;30;20048;-84
2022/01/29 08:14:58;;;;;;;10.93;5.28;;;8.90;99.90;;;;;;4725465;30;20144;-84
2022/01/29 08:17:24;;;;;;;13.15;5.05;;;9.00;99.90;;;;;;4716570;30;20044;-85
2022/01/29 08:19:50;;;;;;;13.18;4.80;;;8.90;99.90;;;;;;4729586;30;20044;-84
2022/01/29 08:22:19;;;;;;;8.85;4.95;;;9.00;99.90;;;;;;4731463;30;20048;-84
2022/01/29 08:24:45;;;;;;;13.13;4.78;;;9.00;99.90;;;;;;4726582;30;20540;-84
2022/01/29 08:27:10;;;;;;;11.45;4.60;;;9.00;99.90;;;;;;4717389;30;20135;-84
2022/01/29 08:29:36;;;;;;;9.98;4.25;;;9.00;99.90;;;;;;4726244;30;20471;-84
2022/01/29 08:32:03;;;;;;;11.30;4.13;;;9.00;99.90;;;;;;4707061;30;20056;-84
2022/01/29 08:34:29;;;;;;;9.05;4.72;;;9.00;99.90;;;;;;4726438;30;20104;-84
2022/01/29 08:36:58;;;;;;;9.88;4.53;;;9.00;99.90;;;;;;4713519;30;20142;-85
2022/01/29 08:39:24;;;;;;;11.00;4.38;;;9.10;99.90;;;;;;4730568;30;20048;-84
2022/01/29 08:41:50;;;;;;;10.02;4.28;;;9.10;99.90;;;;;;4712507;30;20091;-84
2022/01/29 08:44:16;;;;;;;12.65;4.07;;;9.10;99.90;;;;;;4727118;30;20060;-84
2022/01/29 08:46:42;;;;;;;11.80;5.05;;;9.20;99.90;;;;;;4714423;30;20498;-85
2022/01/29 08:49:07;;;;;;;8.27;3.83;;;9.20;99.90;;;;;;4714924;30;20059;-84
2022/01/29 08:51:33;;;;;;;14.05;5.00;;;9.20;99.90;;;;;;4729549;30;20484;-85
2022/01/29 08:53:59;;;;;;;9.65;4.18;;;9.10;99.90;;;;;;4724867;30;20054;-84
2022/01/29 08:56:24;;;;;;;7.22;3.42;;;9.20;99.90;;;;;;4725726;30;20045;-84
2022/01/29 08:58:50;;;;;;;9.38;3.67;;;9.20;99.90;;;;;;4717436;30;20040;-84
2022/01/29 09:01:16;;;;;;;10.23;4.60;;;9.20;99.90;;;;;;4731874;30;20064;-84
2022/01/29 09:03:41;;;;;;;12.23;5.00;;;9.20;99.90;;;;;;4726836;30;20432;-84
2022/01/29 09:06:07;;;;;;;12.68;3.88;;;9.20;99.90;;;;;;4714002;30;20056;-84
2022/01/29 09:08:33;;;;;;;9.63;4.25;;;9.20;99.90;;;;;;4728025;30;20052;-84
2022/01/29 09:10:58;;;;;;;14.10;4.70;;;9.20;99.90;;;;;;4715489;30;20080;-84
2022/01/29 09:13:28;;;;;;;9.85;3.88;;;9.20;99.90;;;;;;4717941;30;20040;-84
2022/01/29 09:15:55;;;;;;;9.23;4.28;;;9.30;99.90;;;;;;4713633;30;20495;-83
2022/01/29 09:18:21;;;;;;;9.65;5.10;;;9.20;99.90;;;;;;4729557;30;20461;-84
2022/01/29 09:20:47;;;;;;;12.23;4.28;;;9.30;99.90;;;;;;4730650;30;20045;-84
2022/01/29 09:23:13;;;;;;;8.00;3.80;;;9.30;99.90;;;;;;4708752;30;20052;-84
2022/01/29 09:25:39;;;;;;;12.52;3.80;;;9.30;99.90;;;;;;4719056;30;20320;-84
2022/01/29 09:28:06;;;;;;;8.75;3.75;;;9.30;99.90;;;;;;4725091;30;20401;-84
2022/01/29 09:30:33;;;;;;;8.70;2.83;;;9.30;99.90;;;;;;4730697;30;20122;-84
2022/01/29 09:32:59;;;;;;;9.23;3.17;;;9.40;99.90;;;;;;4729651;30;20127;-84
2022/01/29 09:35:25;;;;;;;10.82;3.92;;;9.50;99.90;;;;;;4725660;30;20144;-84
2022/01/29 09:37:51;;;;;;;5.78;2.60;;;9.50;99.90;;;;;;4707800;30;20131;-84
2022/01/29 09:40:16;;;;;;;7.70;2.80;;;9.50;99.90;;;;;;4712195;30;20572;-84
2022/01/29 09:42:45;;;;;;;7.45;3.30;;;9.60;99.90;;;;;;4711735;30;20044;-84
2022/01/29 09:45:15;;;;;;;11.52;3.65;;;9.60;99.90;;;;;;4727914;30;20499;-84
2022/01/29 09:47:42;;;;;;;7.68;2.92;;;9.60;99.90;;;;;;4723664;30;20045;-84
2022/01/29 09:50:09;;;;;;;8.38;2.53;;;9.70;99.90;;;;;;4715988;30;20788;-84
2022/01/29 09:52:34;;;;;;;11.02;2.85;;;9.70;99.90;;;;;;4713657;30;20041;-84
2022/01/29 09:55:01;;;;;;;10.35;2.53;;;9.70;99.90;;;;;;4726388;30;20428;-84
2022/01/29 09:57:27;;;;;;;10.18;2.58;;;9.70;99.90;;;;;;4727935;30;20041;-84
2022/01/29 09:59:52;;;;;;;10.27;2.38;;;9.70;99.90;;;;;;4715734;30;20066;-84
2022/01/29 10:02:19;;;;;;;5.28;2.00;;;9.80;99.90;;;;;;4705927;30;20028;-84
2022/01/29 10:04:50;;;;;;;10.07;2.25;;;9.70;99.90;;;;;;4725740;30;20076;-84
2022/01/29 10:07:18;;;;;;;5.38;1.60;;;9.80;99.90;;;;;;4709549;30;20078;-84
2022/01/29 10:09:44;;;;;;;7.90;2.05;;;9.80;99.90;;;;;;4723693;30;20389;-84
2022/01/29 10:12:16;;;;;;;9.13;2.25;;;9.80;99.90;;;;;;4727984;30;20049;-84
2022/01/29 10:14:47;;;;;;;7.47;1.67;;;9.80;99.90;;;;;;4725991;30;20036;-85
2022/01/29 10:17:34;;;;;;;7.72;1.83;;;9.80;99.90;;;;;;4713497;30;20075;-84
2022/01/29 10:20:23;;;;;;;6.05;1.67;;;9.80;99.90;;;;;;4729228;30;20059;-84
2022/01/29 10:22:55;;;;;;;6.18;1.80;;;9.90;99.90;;;;;;4730146;30;20044;-84
2022/01/29 10:25:29;;;;;;;4.95;1.80;;;9.90;99.90;;;;;;4714818;30;20044;-84
2022/01/29 10:28:10;;;;;;;7.65;2.17;;;9.90;99.90;;;;;;4715235;30;20580;-84
2022/01/29 10:30:47;;;;;;;7.30;1.70;;;9.90;99.90;;;;;;4726680;30;20091;-84
2022/01/29 10:33:20;;;;;;;9.52;1.80;;;9.90;99.90;;;;;;4713249;30;20041;-84
2022/01/29 10:35:46;;;;;;;;;;;9.90;99.90;;;;;;4730353;30;20520;-84
2022/01/29 10:38:12;;;;;;;9.57;2.88;;;9.90;99.90;;;;;;4716523;30;20306;-84
2022/01/29 10:40:39;;;;;;;10.98;3.25;;;10.00;99.90;;;;;;4733143;30;20052;-84
2022/01/29 10:43:05;;;;;;;13.55;5.40;;;10.00;99.90;;;;;;4731576;30;20056;-84
2022/01/29 10:45:33;;;;;;;17.20;7.25;;;10.00;99.90;;;;;;4724756;30;20053;-84
2022/01/29 10:47:59;;;;;;;14.88;5.82;;;10.00;99.90;;;;;;4713729;30;20072;-84
2022/01/29 10:50:25;;;;;;;13.35;4.25;;;10.10;99.90;;;;;;4729019;30;20048;-84
2022/01/29 10:52:51;;;;;;;4.90;2.22;;;10.20;99.90;;;;;;4725000;30;20037;-83
2022/01/29 10:55:17;;;;;;;7.53;3.20;;;10.20;99.90;;;;;;4721699;30;20211;-85
2022/01/29 10:57:48;;;;;;;9.82;2.15;;;10.40;99.90;;;;;;4727523;30;20067;-85
2022/01/29 11:00:18;;;;;;;5.50;1.30;;;10.40;99.90;;;;;;4726789;30;20907;-85
2022/01/29 11:02:45;;;;;;;8.70;1.60;;;10.40;99.90;;;;;;4729091;30;20076;-85
2022/01/29 11:05:11;;;;;;;8.82;2.03;;;10.40;99.90;;;;;;4728961;30;20519;-85
2022/01/29 11:07:38;;;;;;;8.85;2.47;;;10.40;99.90;;;;;;4726259;30;20083;-85
2022/01/29 11:10:07;;;;;;;7.03;1.80;;;10.40;99.90;;;;;;4713993;30;20440;-85
2022/01/29 11:12:33;;;;;;;8.63;1.48;;;10.30;99.90;;;;;;4726269;30;20064;-85
2022/01/29 11:15:01;;;;;;;7.85;2.05;;;10.30;99.90;;;;;;4726383;30;20052;-84
2022/01/29 11:17:29;;;;;;;9.43;3.38;;;10.40;99.90;;;;;;4724062;30;20041;-84
2022/01/29 11:19:55;;;;;;;10.63;4.45;;;10.40;99.90;;;;;;4716558;30;20044;-85
2022/01/29 11:22:23;;;;;;;29.45;10.35;;;10.40;99.90;;;;;;4716689;30;20048;-85
2022/01/29 11:24:58;;;;;;;45.70;18.67;;;10.40;99.90;;;;;;4728369;30;20075;-85
2022/01/29 11:27:29;;;;;;;31.60;13.20;;;10.40;99.90;;;;;;4725282;30;22220;-85
2022/01/29 11:30:01;;;;;;;23.10;10.20;;;10.40;99.90;;;;;;4736685;30;20102;-85
2022/01/29 11:32:34;;;;;;;17.57;6.60;;;10.50;99.90;;;;;;4724481;30;20052;-85
2022/01/29 11:35:05;;;;;;;13.98;4.07;;;10.50;99.90;;;;;;4727104;30;20056;-85
2022/01/29 11:37:43;;;;;;;10.77;3.33;;;10.60;99.90;;;;;;4718599;30;20397;-84
2022/01/29 11:40:17;;;;;;;10.90;3.03;;;10.70;99.90;;;;;;4726146;30;20041;-84
2022/01/29 11:43:03;;;;;;;7.15;2.55;;;10.70;99.90;;;;;;4723460;30;20095;-84
2022/01/29 11:45:54;;;;;;;8.48;1.70;;;10.70;99.90;;;;;;4712883;30;20143;-85
2022/01/29 11:48:28;;;;;;;7.18;1.25;;;10.70;99.90;;;;;;4728443;30;20435;-84
2022/01/29 11:51:02;;;;;;;7.15;1.17;;;10.70;99.90;;;;;;4736456;30;20049;-85
2022/01/29 11:53:46;;;;;;;4.90;1.08;;;10.70;99.90;;;;;;4722130;30;20127;-85
2022/01/29 11:56:33;;;;;;;6.00;1.05;;;10.70;99.90;;;;;;4733871;30;20044;-84
2022/01/29 11:59:17;;;;;;;5.80;0.90;;;10.70;99.90;;;;;;4727583;30;20372;-85
2022/01/29 12:01:44;;;;;;;7.22;1.02;;;10.70;99.90;;;;;;4719804;30;20131;-85
2022/01/29 12:04:10;;;;;;;3.90;0.90;;;10.80;99.90;;;;;;4709895;30;20071;-85
2022/01/29 12:06:41;;;;;;;8.00;2.13;;;10.80;99.90;;;;;;4712650;30;20100;-85
2022/01/29 12:09:19;;;;;;;6.43;1.98;;;10.80;99.90;;;;;;4712362;30;20048;-84
2022/01/29 12:12:21;;;;;;;7.07;1.70;;;10.70;99.90;;;;;;4714963;30;20052;-85
2022/01/29 12:14:51;;;;;;;7.20;2.38;;;10.70;99.90;;;;;;4711899;30;20056;-85
2022/01/29 12:17:34;;;;;;;4.80;0.70;;;10.70;99.90;;;;;;4715211;30;20062;-85
2022/01/29 12:20:01;;;;;;;;;;;10.70;99.90;;;;;;4726504;30;20060;-85
2022/01/29 12:22:27;;;;;;;4.82;1.10;;;10.60;99.90;;;;;;4726606;30;19927;-85
2022/01/29 12:24:58;;;;;;;8.05;1.08;;;10.60;99.90;;;;;;4718774;30;20564;-85
2022/01/29 12:28:01;;;;;;;8.32;2.20;;;10.70;99.90;;;;;;4710359;30;20068;-85
2022/01/29 12:30:31;;;;;;;7.78;2.30;;;10.70;99.90;;;;;;4729728;30;20566;-84
2022/01/29 12:36:47;;;;;;;10.68;2.25;;;10.70;99.90;;;;;;4730072;30;20127;-85
2022/01/29 12:39:22;;;;;;;3.90;1.08;;;10.80;99.90;;;;;;4727246;30;20052;-85
2022/01/29 12:44:42;;;;;;;3.70;0.93;;;10.90;99.90;;;;;;4725606;30;20075;-85
2022/01/29 12:47:08;;;;;;;6.32;1.88;;;11.00;99.90;;;;;;4725604;30;20148;-85
2022/01/29 12:49:42;;;;;;;8.30;1.42;;;11.00;99.90;;;;;;4728407;30;20466;-85
2022/01/29 12:52:14;;;;;;;9.02;1.35;;;11.10;99.90;;;;;;4710436;30;20127;-85
2022/01/29 12:54:40;;;;;;;8.40;1.77;;;11.20;99.90;;;;;;4727244;30;20048;-85
2022/01/29 12:57:06;;;;;;;6.78;1.15;;;11.20;99.90;;;;;;4715994;30;20487;-85
2022/01/29 12:59:35;;;;;;;7.30;1.27;;;11.10;99.90;;;;;;4710608;30;20135;-85
2022/01/29 13:02:03;;;;;;;6.88;1.25;;;11.00;99.90;;;;;;4731822;30;20045;-85
2022/01/29 13:04:29;;;;;;;9.10;1.38;;;11.00;99.90;;;;;;4709928;30;20044;-85
2022/01/29 13:07:04;;;;;;;8.38;1.90;;;10.90;99.90;;;;;;4726317;30;20048;-85
2022/01/29 13:09:34;;;;;;;9.63;1.73;;;10.90;99.90;;;;;;4730147;30;20044;-85